Time,TemperatureF,DewpointF,PressureIn,WindDirection,WindDirectionDegrees,WindSpeedMPH,WindSpeedGustMPH,Humidity,HourlyPrecipIn,Conditions,Clouds,dailyrainin,SoftwareType,DateUTC
2013-03-27 00:00:00,26.6,20.4,30.41,SSW,195,0.0,0.0,77,0.00,,---,0.00,VWS V14.01,2013-03-27 05:00:00,
2013-03-27 00:02:00,26.4,20.2,30.41,SSW,195,0.0,0.0,77,0.00,,---,0.00,VWS V14.01,2013-03-27 05:02:00,
2013-03-27 00:07:00,26.0,19.8,30.41,SSW,195,0.0,0.0,77,0.00,,---,0.00,VWS V14.01,2013-03-27 05:07:00,
2013-03-27 00:13:00,25.6,19.7,30.41,SSW,195,0.0,0.0,78,0.00,,---,0.00,VWS V14.01,2013-03-27 05:13:00,
2013-03-27 00:18:00,25.5,19.9,30.41,SSW,195,0.0,0.0,79,0.00,,---,0.00,VWS V14.01,2013-03-27 05:18:00,
2013-03-27 00:23:00,25.3,19.7,30.40,SSW,197,0.0,0.0,79,0.00,,---,0.00,VWS V14.01,2013-03-27 05:23:00,
2013-03-27 00:28:00,25.3,20.0,30.41,SSW,195,0.0,0.0,80,0.00,,---,0.00,VWS V14.01,2013-03-27 05:28:00,
2013-03-27 00:30:00,25.4,20.1,30.40,SSW,195,0.0,0.0,80,0.00,,---,0.00,VWS V14.01,2013-03-27 05:30:00,
2013-03-27 00:33:00,25.9,20.9,30.40,SE,128,0.0,0.0,81,0.00,,---,0.00,VWS V14.01,2013-03-27 05:33:00,
2013-03-27 00:38:00,26.2,20.9,30.40,SE,128,0.0,0.0,80,0.00,,---,0.00,VWS V14.01,2013-03-27 05:38:00,
2013-03-27 00:43:00,26.0,20.4,30.41,SE,128,0.0,0.0,79,0.00,,---,0.00,VWS V14.01,2013-03-27 05:43:00,
2013-03-27 00:48:00,25.9,20.6,30.41,SE,128,0.0,0.0,80,0.00,,---,0.00,VWS V14.01,2013-03-27 05:48:00,
2013-03-27 00:54:00,25.9,20.6,30.41,SE,129,0.0,0.0,80,0.00,,---,0.00,VWS V14.01,2013-03-27 05:54:00,
2013-03-27 00:59:00,25.5,20.2,30.41,SE,129,0.0,0.0,80,0.00,,---,0.00,VWS V14.01,2013-03-27 05:59:00,
2013-03-27 01:00:00,25.4,20.1,30.41,SE,128,0.0,0.0,80,0.00,,---,0.00,VWS V14.01,2013-03-27 06:00:00,
2013-03-27 01:04:00,25.0,19.4,30.41,SE,129,0.0,0.0,79,0.00,,---,0.00,VWS V14.01,2013-03-27 06:04:00,
2013-03-27 01:09:00,25.2,20.5,30.41,SE,128,0.0,0.0,82,0.00,,---,0.00,VWS V14.01,2013-03-27 06:09:00,
2013-03-27 01:14:00,25.7,21.0,30.41,SE,128,0.0,1.0,82,0.00,,---,0.00,VWS V14.01,2013-03-27 06:14:00,
2013-03-27 01:19:00,25.8,20.8,30.41,SE,128,0.0,1.0,81,0.00,,---,0.00,VWS V14.01,2013-03-27 06:19:00,
2013-03-27 01:24:00,25.5,20.2,30.41,SE,129,0.0,1.0,80,0.00,,---,0.00,VWS V14.01,2013-03-27 06:24:00,
2013-03-27 01:29:00,25.4,20.4,30.41,SE,128,0.0,1.0,81,0.00,,---,0.00,VWS V14.01,2013-03-27 06:29:00,
2013-03-27 01:30:00,25.4,20.4,30.41,SE,128,0.0,1.0,81,0.00,,---,0.00,VWS V14.01,2013-03-27 06:30:00,
2013-03-27 01:34:00,25.3,20.3,30.41,SE,129,0.0,0.0,81,0.00,,---,0.00,VWS V14.01,2013-03-27 06:34:00,
2013-03-27 01:39:00,25.6,20.9,30.41,SE,128,0.0,1.0,82,0.00,,---,0.00,VWS V14.01,2013-03-27 06:39:00,
2013-03-27 01:44:00,26.1,21.1,30.41,SE,129,0.0,1.0,81,0.00,,---,0.00,VWS V14.01,2013-03-27 06:44:00,
2013-03-27 01:49:00,26.0,20.7,30.41,SE,129,0.0,1.0,80,0.00,,---,0.00,VWS V14.01,2013-03-27 06:49:00,
2013-03-27 01:54:00,25.8,20.8,30.41,SE,128,0.0,1.0,81,0.00,,---,0.00,VWS V14.01,2013-03-27 06:54:00,
2013-03-27 01:59:00,25.8,20.8,30.40,SE,128,0.0,0.0,81,0.00,,---,0.00,VWS V14.01,2013-03-27 06:59:00,
2013-03-27 02:00:00,25.7,20.7,30.40,SE,128,0.0,1.0,81,0.00,,---,0.00,VWS V14.01,2013-03-27 07:00:00,
2013-03-27 02:04:00,26.1,21.1,30.40,SE,128,0.0,0.0,81,0.00,,---,0.00,VWS V14.01,2013-03-27 07:04:00,
2013-03-27 02:09:00,26.2,20.9,30.41,SE,129,0.0,0.0,80,0.00,,---,0.00,VWS V14.01,2013-03-27 07:09:00,
2013-03-27 02:15:00,25.7,20.1,30.41,SE,128,0.0,0.0,79,0.00,,---,0.00,VWS V14.01,2013-03-27 07:15:00,
2013-03-27 02:20:00,25.8,20.8,30.41,SE,129,0.0,0.0,81,0.00,,---,0.00,VWS V14.01,2013-03-27 07:20:00,
2013-03-27 02:25:00,25.6,20.3,30.40,SE,128,0.0,0.0,80,0.00,,---,0.00,VWS V14.01,2013-03-27 07:25:00,
2013-03-27 02:30:00,25.7,21.0,30.40,SE,128,0.0,0.0,82,0.00,,---,0.00,VWS V14.01,2013-03-27 07:30:00,
2013-03-27 02:35:00,25.7,20.7,30.40,SE,129,0.0,0.0,81,0.00,,---,0.00,VWS V14.01,2013-03-27 07:35:00,
2013-03-27 02:40:00,25.5,20.8,30.40,SE,128,0.0,0.0,82,0.00,,---,0.00,VWS V14.01,2013-03-27 07:40:00,
2013-03-27 02:45:00,25.5,20.8,30.40,SE,128,1.0,1.0,82,0.00,,---,0.00,VWS V14.01,2013-03-27 07:45:00,
2013-03-27 02:50:00,25.5,20.8,30.40,SE,129,0.0,1.0,82,0.00,,---,0.00,VWS V14.01,2013-03-27 07:50:00,
2013-03-27 02:55:00,25.4,21.0,30.40,SE,129,0.0,1.0,83,0.00,,---,0.00,VWS V14.01,2013-03-27 07:55:00,
2013-03-27 03:00:00,25.3,20.9,30.40,SE,129,0.0,0.0,83,0.00,,---,0.00,VWS V14.01,2013-03-27 08:00:00,
2013-03-27 03:05:00,25.3,20.9,30.40,SE,129,0.0,0.0,83,0.00,,---,0.00,VWS V14.01,2013-03-27 08:05:00,
2013-03-27 03:10:00,25.3,20.9,30.39,SE,129,0.0,0.0,83,0.00,,---,0.00,VWS V14.01,2013-03-27 08:10:00,
2013-03-27 03:15:00,25.4,21.0,30.39,SE,129,0.0,0.0,83,0.00,,---,0.00,VWS V14.01,2013-03-27 08:15:00,
2013-03-27 03:21:00,25.4,21.0,30.39,SE,129,0.0,1.0,83,0.00,,---,0.00,VWS V14.01,2013-03-27 08:21:00,
2013-03-27 03:26:00,25.3,20.9,30.40,SE,128,0.0,1.0,83,0.00,,---,0.00,VWS V14.01,2013-03-27 08:26:00,
2013-03-27 03:30:00,25.4,21.0,30.40,SE,129,0.0,1.0,83,0.00,,---,0.00,VWS V14.01,2013-03-27 08:30:00,
2013-03-27 03:31:00,25.5,21.1,30.40,WSW,242,0.0,0.0,83,0.00,,---,0.00,VWS V14.01,2013-03-27 08:31:00,
2013-03-27 03:37:00,25.8,21.1,30.40,WSW,242,0.0,0.0,82,0.00,,---,0.00,VWS V14.01,2013-03-27 08:37:00,
2013-03-27 03:42:00,25.7,20.7,30.40,WSW,242,0.0,0.0,81,0.00,,---,0.00,VWS V14.01,2013-03-27 08:42:00,
2013-03-27 03:47:00,25.7,20.7,30.40,WSW,242,0.0,0.0,81,0.00,,---,0.00,VWS V14.01,2013-03-27 08:47:00,
2013-03-27 03:52:00,25.5,20.5,30.40,WSW,242,0.0,0.0,81,0.00,,---,0.00,VWS V14.01,2013-03-27 08:52:00,
2013-03-27 03:57:00,25.6,20.9,30.40,ESE,122,0.0,1.0,82,0.00,,---,0.00,VWS V14.01,2013-03-27 08:57:00,
2013-03-27 04:00:00,25.7,20.7,30.40,ESE,122,0.0,1.0,81,0.00,,---,0.00,VWS V14.01,2013-03-27 09:00:00,
2013-03-27 04:02:00,25.7,20.7,30.40,SE,146,0.0,1.0,81,0.00,,---,0.00,VWS V14.01,2013-03-27 09:02:00,
2013-03-27 04:07:00,25.5,20.5,30.40,SE,146,0.0,1.0,81,0.00,,---,0.00,VWS V14.01,2013-03-27 09:07:00,
2013-03-27 04:12:00,25.4,20.4,30.39,SE,146,0.0,1.0,81,0.00,,---,0.00,VWS V14.01,2013-03-27 09:12:00,
2013-03-27 04:17:00,25.3,20.6,30.39,SE,145,0.0,1.0,82,0.00,,---,0.00,VWS V14.01,2013-03-27 09:17:00,
2013-03-27 04:22:00,25.2,20.5,30.39,SE,145,0.0,1.0,82,0.00,,---,0.00,VWS V14.01,2013-03-27 09:22:00,
2013-03-27 04:27:00,25.3,20.6,30.39,SSE,162,0.0,1.0,82,0.00,,---,0.00,VWS V14.01,2013-03-27 09:27:00,
2013-03-27 04:30:00,25.2,20.5,30.39,SSE,162,0.0,1.0,82,0.00,,---,0.00,VWS V14.01,2013-03-27 09:30:00,
2013-03-27 04:32:00,25.2,20.5,30.39,SSE,162,0.0,0.0,82,0.00,,---,0.00,VWS V14.01,2013-03-27 09:32:00,
2013-03-27 04:37:00,25.2,20.8,30.39,SSE,162,0.0,0.0,83,0.00,,---,0.00,VWS V14.01,2013-03-27 09:37:00,
2013-03-27 04:42:00,25.1,20.4,30.39,SSE,162,0.0,0.0,82,0.00,,---,0.00,VWS V14.01,2013-03-27 09:42:00,
2013-03-27 04:47:00,24.7,20.0,30.39,SSE,162,0.0,0.0,82,0.00,,---,0.00,VWS V14.01,2013-03-27 09:47:00,
2013-03-27 04:53:00,24.5,20.1,30.39,SSE,160,0.0,0.0,83,0.00,,---,0.00,VWS V14.01,2013-03-27 09:53:00,
2013-03-27 04:58:00,24.7,20.6,30.39,SSE,162,0.0,0.0,84,0.00,,---,0.00,VWS V14.01,2013-03-27 09:58:00,
2013-03-27 05:00:00,24.7,20.6,30.39,SSE,162,0.0,0.0,84,0.00,,---,0.00,VWS V14.01,2013-03-27 10:00:00,
2013-03-27 05:03:00,24.7,20.6,30.39,SSE,162,0.0,0.0,84,0.00,,---,0.00,VWS V14.01,2013-03-27 10:03:00,
2013-03-27 05:08:00,24.5,20.4,30.39,SSE,162,0.0,0.0,84,0.00,,---,0.00,VWS V14.01,2013-03-27 10:08:00,
2013-03-27 05:13:00,24.6,20.5,30.39,SSE,162,0.0,0.0,84,0.00,,---,0.00,VWS V14.01,2013-03-27 10:13:00,
2013-03-27 05:18:00,24.4,20.3,30.39,SSE,162,0.0,0.0,84,0.00,,---,0.00,VWS V14.01,2013-03-27 10:18:00,
2013-03-27 05:23:00,24.1,20.0,30.40,SSE,162,0.0,0.0,84,0.00,,---,0.00,VWS V14.01,2013-03-27 10:23:00,
2013-03-27 05:28:00,23.8,20.0,30.40,SSE,162,0.0,0.0,85,0.00,,---,0.00,VWS V14.01,2013-03-27 10:28:00,
2013-03-27 05:30:00,23.7,19.9,30.40,SSE,162,0.0,0.0,85,0.00,,---,0.00,VWS V14.01,2013-03-27 10:30:00,
2013-03-27 05:33:00,23.4,19.6,30.40,SSE,160,0.0,0.0,85,0.00,,---,0.00,VWS V14.01,2013-03-27 10:33:00,
2013-03-27 05:38:00,22.9,19.1,30.40,SSE,162,0.0,0.0,85,0.00,,---,0.00,VWS V14.01,2013-03-27 10:38:00,
2013-03-27 05:43:00,23.0,19.5,30.40,SSE,160,0.0,0.0,86,0.00,,---,0.00,VWS V14.01,2013-03-27 10:43:00,
2013-03-27 05:48:00,22.8,19.2,30.40,SSE,160,0.0,0.0,86,0.00,,---,0.00,VWS V14.01,2013-03-27 10:48:00,
2013-03-27 05:53:00,22.8,19.8,30.40,SSE,162,0.0,0.0,88,0.00,,---,0.00,VWS V14.01,2013-03-27 10:53:00,
2013-03-27 05:58:00,23.1,19.8,30.40,SSE,162,0.0,0.0,87,0.00,,---,0.00,VWS V14.01,2013-03-27 10:58:00,
2013-03-27 06:00:00,23.1,19.8,30.40,SSE,160,0.0,0.0,87,0.00,,---,0.00,VWS V14.01,2013-03-27 11:00:00,
2013-03-27 06:04:00,22.9,19.6,30.40,SSE,162,0.0,0.0,87,0.00,,---,0.00,VWS V14.01,2013-03-27 11:04:00,
2013-03-27 06:09:00,22.9,19.6,30.40,SSE,162,0.0,0.0,87,0.00,,---,0.00,VWS V14.01,2013-03-27 11:09:00,
2013-03-27 06:14:00,22.9,19.9,30.40,SSE,160,0.0,0.0,88,0.00,,---,0.00,VWS V14.01,2013-03-27 11:14:00,
2013-03-27 06:19:00,23.1,20.1,30.40,SSE,162,0.0,0.0,88,0.00,,---,0.00,VWS V14.01,2013-03-27 11:19:00,
2013-03-27 06:24:00,22.8,19.5,30.40,SSE,160,0.0,0.0,87,0.00,,---,0.00,VWS V14.01,2013-03-27 11:24:00,
2013-03-27 06:29:00,22.7,19.7,30.40,SSE,160,0.0,0.0,88,0.00,,---,0.00,VWS V14.01,2013-03-27 11:29:00,
2013-03-27 06:30:00,22.7,19.7,30.40,SSE,160,0.0,0.0,88,0.00,,---,0.00,VWS V14.01,2013-03-27 11:30:00,
2013-03-27 06:34:00,22.9,19.9,30.40,SSE,162,0.0,0.0,88,0.00,,---,0.00,VWS V14.01,2013-03-27 11:34:00,
2013-03-27 06:39:00,23.0,20.0,30.40,SSE,162,0.0,0.0,88,0.00,,---,0.00,VWS V14.01,2013-03-27 11:39:00,
2013-03-27 06:44:00,22.9,19.9,30.39,SSE,162,0.0,0.0,88,0.00,,---,0.00,VWS V14.01,2013-03-27 11:44:00,
2013-03-27 06:49:00,22.5,19.5,30.40,SSE,160,0.0,0.0,88,0.00,,---,0.00,VWS V14.01,2013-03-27 11:49:00,
2013-03-27 06:54:00,22.4,19.7,30.40,SSE,160,0.0,0.0,89,0.00,,---,0.00,VWS V14.01,2013-03-27 11:54:00,
2013-03-27 06:59:00,22.4,19.7,30.40,SSE,160,0.0,0.0,89,0.00,,---,0.00,VWS V14.01,2013-03-27 11:59:00,
2013-03-27 07:00:00,22.4,19.7,30.40,SSE,162,0.0,0.0,89,0.00,,---,0.00,VWS V14.01,2013-03-27 12:00:00,
2013-03-27 07:05:00,22.5,19.8,30.40,SSE,161,0.0,0.0,89,0.00,,---,0.00,VWS V14.01,2013-03-27 12:05:00,
2013-03-27 07:10:00,22.7,20.0,30.40,SSE,162,0.0,0.0,89,0.00,,---,0.00,VWS V14.01,2013-03-27 12:10:00,
2013-03-27 07:15:00,22.8,20.0,30.40,SSE,159,0.0,0.0,89,0.00,,---,0.00,VWS V14.01,2013-03-27 12:15:00,
2013-03-27 07:20:00,22.8,20.0,30.40,SSE,160,0.0,0.0,89,0.00,,---,0.00,VWS V14.01,2013-03-27 12:20:00,
2013-03-27 07:25:00,22.8,20.0,30.41,SSE,159,0.0,0.0,89,0.00,,---,0.00,VWS V14.01,2013-03-27 12:25:00,
2013-03-27 07:30:00,22.8,20.0,30.41,SSE,159,0.0,0.0,89,0.00,,---,0.00,VWS V14.01,2013-03-27 12:30:00,
2013-03-27 07:35:00,23.2,20.5,30.41,SSE,159,0.0,0.0,89,0.00,,---,0.00,VWS V14.01,2013-03-27 12:35:00,
2013-03-27 07:40:00,23.8,21.0,30.41,SSE,159,0.0,0.0,89,0.00,,---,0.00,VWS V14.01,2013-03-27 12:40:00,
2013-03-27 07:45:00,24.5,21.5,30.42,SSE,159,0.0,0.0,88,0.00,,---,0.00,VWS V14.01,2013-03-27 12:45:00,
2013-03-27 07:50:00,25.4,22.4,30.42,SSE,159,0.0,0.0,88,0.00,,---,0.00,VWS V14.01,2013-03-27 12:50:00,
2013-03-27 07:55:00,26.6,23.3,30.42,SSE,159,0.0,0.0,87,0.00,,---,0.00,VWS V14.01,2013-03-27 12:55:00,
2013-03-27 08:00:00,27.8,24.2,30.42,SSE,160,0.0,0.0,86,0.00,,---,0.00,VWS V14.01,2013-03-27 13:00:00,
2013-03-27 08:05:00,28.0,23.5,30.42,SSE,159,0.0,0.0,83,0.00,,---,0.00,VWS V14.01,2013-03-27 13:05:00,
2013-03-27 08:10:00,28.0,22.6,30.42,East,89,1.0,1.0,80,0.00,,---,0.00,VWS V14.01,2013-03-27 13:10:00,
2013-03-27 08:15:00,27.3,22.0,30.42,ESE,109,0.0,2.0,80,0.00,,---,0.00,VWS V14.01,2013-03-27 13:15:00,
2013-03-27 08:21:00,27.6,22.5,30.42,ESE,109,0.0,2.0,81,0.00,,---,0.00,VWS V14.01,2013-03-27 13:21:00,
2013-03-27 08:26:00,27.9,22.5,30.42,ESE,105,0.0,2.0,80,0.00,,---,0.00,VWS V14.01,2013-03-27 13:26:00,
2013-03-27 08:30:00,28.1,22.7,30.42,ESE,105,0.0,2.0,80,0.00,,---,0.00,VWS V14.01,2013-03-27 13:30:00,
2013-03-27 08:31:00,28.2,22.8,30.42,ESE,105,0.0,0.0,80,0.00,,---,0.00,VWS V14.01,2013-03-27 13:31:00,
2013-03-27 08:36:00,28.6,22.9,30.42,ESE,104,0.0,1.0,79,0.00,,---,0.00,VWS V14.01,2013-03-27 13:36:00,
2013-03-27 08:41:00,29.3,23.9,30.42,ESE,105,0.0,1.0,80,0.00,,---,0.00,VWS V14.01,2013-03-27 13:41:00,
2013-03-27 08:46:00,30.6,25.2,30.42,ESE,105,0.0,1.0,80,0.00,,---,0.00,VWS V14.01,2013-03-27 13:46:00,
2013-03-27 08:52:00,31.0,24.6,30.42,SE,146,1.0,1.0,77,0.00,,---,0.00,VWS V14.01,2013-03-27 13:52:00,
2013-03-27 08:57:00,31.6,24.9,30.42,SE,129,0.0,1.0,76,0.00,,---,0.00,VWS V14.01,2013-03-27 13:57:00,
2013-03-27 09:00:00,31.9,24.9,30.42,ESE,104,1.0,1.0,75,0.00,,---,0.00,VWS V14.01,2013-03-27 14:00:00,
2013-03-27 09:02:00,32.1,25.1,30.42,SE,126,0.0,1.0,75,0.00,,---,0.00,VWS V14.01,2013-03-27 14:02:00,
2013-03-27 09:07:00,33.0,25.3,30.42,ESE,103,1.0,1.0,73,0.00,,---,0.00,VWS V14.01,2013-03-27 14:07:00,
2013-03-27 09:12:00,32.8,25.1,30.42,ESE,102,2.0,2.0,73,0.00,,---,0.00,VWS V14.01,2013-03-27 14:12:00,
2013-03-27 09:17:00,32.6,24.9,30.42,East,94,0.0,2.0,73,0.00,,---,0.00,VWS V14.01,2013-03-27 14:17:00,
2013-03-27 09:22:00,32.8,25.1,30.42,East,94,1.0,2.0,73,0.00,,---,0.00,VWS V14.01,2013-03-27 14:22:00,
2013-03-27 09:27:00,33.2,25.5,30.42,East,85,1.0,2.0,73,0.00,,---,0.00,VWS V14.01,2013-03-27 14:27:00,
2013-03-27 09:30:00,33.2,25.5,30.42,WSW,242,0.0,2.0,73,0.00,,---,0.00,VWS V14.01,2013-03-27 14:30:00,
2013-03-27 09:32:00,33.9,26.2,30.42,SSE,150,0.0,2.0,73,0.00,,---,0.00,VWS V14.01,2013-03-27 14:32:00,
2013-03-27 09:37:00,34.5,25.7,30.42,SE,135,1.0,3.0,70,0.00,,---,0.00,VWS V14.01,2013-03-27 14:37:00,
2013-03-27 09:42:00,34.9,26.5,30.42,SSW,212,3.0,3.0,71,0.00,,---,0.00,VWS V14.01,2013-03-27 14:42:00,
2013-03-27 09:47:00,34.8,25.7,30.42,SSE,158,3.0,4.0,69,0.00,,---,0.00,VWS V14.01,2013-03-27 14:47:00,
2013-03-27 09:53:00,34.8,25.7,30.43,SSW,209,1.0,5.0,69,0.00,,---,0.00,VWS V14.01,2013-03-27 14:53:00,
2013-03-27 09:58:00,35.1,26.0,30.42,SW,232,1.0,5.0,69,0.00,,---,0.00,VWS V14.01,2013-03-27 14:58:00,
2013-03-27 10:00:00,35.1,26.0,30.43,WSW,238,2.0,5.0,69,0.00,,---,0.00,VWS V14.01,2013-03-27 15:00:00,
2013-03-27 10:03:00,35.4,26.6,30.43,SW,218,1.0,3.0,70,0.00,,---,0.00,VWS V14.01,2013-03-27 15:03:00,
2013-03-27 10:08:00,35.4,25.5,30.43,SE,132,1.0,5.0,67,0.00,,---,0.00,VWS V14.01,2013-03-27 15:08:00,
2013-03-27 10:13:00,35.2,25.7,30.43,ESE,120,4.0,6.0,68,0.00,,---,0.00,VWS V14.01,2013-03-27 15:13:00,
2013-03-27 10:18:00,34.9,25.4,30.43,SSE,158,2.0,6.0,68,0.00,,---,0.00,VWS V14.01,2013-03-27 15:18:00,
2013-03-27 10:23:00,35.0,25.9,30.43,East,90,1.0,7.0,69,0.00,,---,0.00,VWS V14.01,2013-03-27 15:23:00,
2013-03-27 10:28:00,35.6,26.1,30.43,WSW,249,1.0,7.0,68,0.00,,---,0.00,VWS V14.01,2013-03-27 15:28:00,
2013-03-27 10:30:00,35.7,26.2,30.43,SW,224,3.0,7.0,68,0.00,,---,0.00,VWS V14.01,2013-03-27 15:30:00,
2013-03-27 10:33:00,36.2,26.3,30.43,ESE,110,5.0,6.0,67,0.00,,---,0.00,VWS V14.01,2013-03-27 15:33:00,
2013-03-27 10:38:00,36.1,26.2,30.42,SE,143,1.0,6.0,67,0.00,,---,0.00,VWS V14.01,2013-03-27 15:38:00,
2013-03-27 10:43:00,36.7,27.1,30.42,SE,145,2.0,6.0,68,0.00,,---,0.00,VWS V14.01,2013-03-27 15:43:00,
2013-03-27 10:48:00,37.1,26.4,30.42,SE,143,2.0,6.0,65,0.00,,---,0.00,VWS V14.01,2013-03-27 15:48:00,
2013-03-27 10:53:00,37.7,27.0,30.42,South,169,5.0,6.0,65,0.00,,---,0.00,VWS V14.01,2013-03-27 15:53:00,
2013-03-27 10:58:00,37.2,26.9,30.42,SW,221,2.0,8.0,66,0.00,,---,0.00,VWS V14.01,2013-03-27 15:58:00,
2013-03-27 11:00:00,37.3,27.0,30.42,SW,218,5.0,8.0,66,0.00,,---,0.00,VWS V14.01,2013-03-27 16:00:00,
2013-03-27 11:03:00,37.7,27.4,30.42,SSW,199,3.0,5.0,66,0.00,,---,0.00,VWS V14.01,2013-03-27 16:03:00,
2013-03-27 11:08:00,37.9,27.2,30.42,SSE,157,4.0,6.0,65,0.00,,---,0.00,VWS V14.01,2013-03-27 16:08:00,
2013-03-27 11:13:00,37.8,26.7,30.43,SSE,148,3.0,8.0,64,0.00,,---,0.00,VWS V14.01,2013-03-27 16:13:00,
2013-03-27 11:18:00,37.5,26.1,30.42,SSW,201,6.0,10.0,63,0.00,,---,0.00,VWS V14.01,2013-03-27 16:18:00,
2013-03-27 11:24:00,37.3,26.3,30.43,SE,134,5.0,10.0,64,0.00,,---,0.00,VWS V14.01,2013-03-27 16:24:00,
2013-03-27 11:29:00,37.1,26.1,30.42,ESE,120,1.0,10.0,64,0.00,,---,0.00,VWS V14.01,2013-03-27 16:29:00,
2013-03-27 11:30:00,37.2,26.5,30.42,East,89,5.0,10.0,65,0.00,,---,0.00,VWS V14.01,2013-03-27 16:30:00,
2013-03-27 11:34:00,37.5,26.1,30.42,SE,125,4.0,8.0,63,0.00,,---,0.00,VWS V14.01,2013-03-27 16:34:00,
2013-03-27 11:39:00,37.8,26.7,30.42,SSE,157,2.0,8.0,64,0.00,,---,0.00,VWS V14.01,2013-03-27 16:39:00,
2013-03-27 11:44:00,38.7,27.2,30.42,SSW,198,4.0,8.0,63,0.00,,---,0.00,VWS V14.01,2013-03-27 16:44:00,
2013-03-27 11:49:00,38.7,26.4,30.42,ESE,120,4.0,11.0,61,0.00,,---,0.00,VWS V14.01,2013-03-27 16:49:00,
2013-03-27 11:54:00,38.1,27.0,30.42,SW,225,1.0,12.0,64,0.00,,---,0.00,VWS V14.01,2013-03-27 16:54:00,
2013-03-27 11:59:00,38.4,26.1,30.42,ENE,77,6.0,12.0,61,0.00,,---,0.00,VWS V14.01,2013-03-27 16:59:00,
2013-03-27 12:00:00,38.3,26.0,30.42,ESE,103,7.0,12.0,61,0.00,,---,0.00,VWS V14.01,2013-03-27 17:00:00,
2013-03-27 12:04:00,38.3,26.4,30.42,ESE,103,8.0,11.0,62,0.00,,---,0.00,VWS V14.01,2013-03-27 17:04:00,
2013-03-27 12:09:00,38.7,27.2,30.42,ESE,109,3.0,11.0,63,0.00,,---,0.00,VWS V14.01,2013-03-27 17:09:00,
2013-03-27 12:14:00,39.5,27.2,30.42,SE,146,6.0,11.0,61,0.00,,---,0.00,VWS V14.01,2013-03-27 17:14:00,
2013-03-27 12:19:00,39.6,27.3,30.42,East,86,2.0,11.0,61,0.00,,---,0.00,VWS V14.01,2013-03-27 17:19:00,
2013-03-27 12:25:00,39.7,26.1,30.42,SE,124,7.0,11.0,58,0.00,,---,0.00,VWS V14.01,2013-03-27 17:25:00,
2013-03-27 12:30:00,39.7,27.4,30.42,East,83,1.0,1.0,61,0.00,,---,0.00,VWS V14.01,2013-03-27 17:30:00,
2013-03-27 12:35:00,39.3,26.6,30.42,ESE,117,5.0,8.0,60,0.00,,---,0.00,VWS V14.01,2013-03-27 17:35:00,
2013-03-27 12:40:00,39.5,27.2,30.42,SSE,162,4.0,8.0,61,0.00,,---,0.00,VWS V14.01,2013-03-27 17:40:00,
2013-03-27 12:45:00,40.3,27.9,30.41,West,259,0.0,8.0,61,0.00,,---,0.00,VWS V14.01,2013-03-27 17:45:00,
2013-03-27 12:50:00,41.0,27.4,30.41,South,186,3.0,8.0,58,0.00,,---,0.00,VWS V14.01,2013-03-27 17:50:00,
2013-03-27 12:55:00,40.6,26.1,30.41,SSE,158,4.0,8.0,56,0.00,,---,0.00,VWS V14.01,2013-03-27 17:55:00,
2013-03-27 13:00:00,39.8,26.2,30.41,East,89,4.0,4.0,58,0.00,,---,0.00,VWS V14.01,2013-03-27 18:00:00,
2013-03-27 13:05:00,40.0,26.8,30.41,SW,215,2.0,10.0,59,0.00,,---,0.00,VWS V14.01,2013-03-27 18:05:00,
2013-03-27 13:10:00,40.7,27.5,30.41,ESE,120,6.0,10.0,59,0.00,,---,0.00,VWS V14.01,2013-03-27 18:10:00,
2013-03-27 13:15:00,40.5,26.9,30.40,East,88,6.0,10.0,58,0.00,,---,0.00,VWS V14.01,2013-03-27 18:15:00,
2013-03-27 13:21:00,40.4,25.5,30.40,ENE,78,2.0,10.0,55,0.00,,---,0.00,VWS V14.01,2013-03-27 18:21:00,
2013-03-27 13:26:00,40.3,26.3,30.40,East,100,5.0,10.0,57,0.00,,---,0.00,VWS V14.01,2013-03-27 18:26:00,
2013-03-27 13:30:00,40.3,25.9,30.40,ESE,106,0.0,10.0,56,0.00,,---,0.00,VWS V14.01,2013-03-27 18:30:00,
2013-03-27 13:31:00,40.6,26.6,30.40,SSW,199,0.0,5.0,57,0.00,,---,0.00,VWS V14.01,2013-03-27 18:31:00,
2013-03-27 13:36:00,41.5,26.5,30.40,ESE,107,3.0,5.0,55,0.00,,---,0.00,VWS V14.01,2013-03-27 18:36:00,
2013-03-27 13:41:00,42.0,27.0,30.39,SSW,201,4.0,8.0,55,0.00,,---,0.00,VWS V14.01,2013-03-27 18:41:00,
2013-03-27 13:46:00,42.2,27.6,30.39,SSE,148,0.0,8.0,56,0.00,,---,0.00,VWS V14.01,2013-03-27 18:46:00,
2013-03-27 13:51:00,43.0,28.8,30.39,SSE,160,2.0,8.0,57,0.00,,---,0.00,VWS V14.01,2013-03-27 18:51:00,
2013-03-27 13:57:00,43.2,27.7,30.39,WSW,238,2.0,8.0,54,0.00,,---,0.00,VWS V14.01,2013-03-27 18:57:00,
2013-03-27 14:00:00,42.9,26.5,30.39,SSW,200,5.0,8.0,52,0.00,,---,0.00,VWS V14.01,2013-03-27 19:00:00,
2013-03-27 14:02:00,43.2,27.2,30.39,WSW,242,2.0,6.0,53,0.00,,---,0.00,VWS V14.01,2013-03-27 19:02:00,
2013-03-27 14:07:00,43.4,27.4,30.38,SSE,166,3.0,6.0,53,0.00,,---,0.00,VWS V14.01,2013-03-27 19:07:00,
2013-03-27 14:12:00,43.5,26.6,30.38,WSW,248,2.0,6.0,51,0.00,,---,0.00,VWS V14.01,2013-03-27 19:12:00,
2013-03-27 14:17:00,42.9,26.0,30.38,SW,215,5.0,10.0,51,0.00,,---,0.00,VWS V14.01,2013-03-27 19:17:00,
2013-03-27 14:22:00,43.1,26.7,30.38,ESE,106,3.0,10.0,52,0.00,,---,0.00,VWS V14.01,2013-03-27 19:22:00,
2013-03-27 14:27:00,43.3,26.9,30.37,East,82,4.0,10.0,52,0.00,,---,0.00,VWS V14.01,2013-03-27 19:27:00,
2013-03-27 14:30:00,43.6,27.1,30.37,SSW,202,6.0,10.0,52,0.00,,---,0.00,VWS V14.01,2013-03-27 19:30:00,
2013-03-27 14:32:00,43.7,27.2,30.37,SSW,193,3.0,6.0,52,0.00,,---,0.00,VWS V14.01,2013-03-27 19:32:00,
2013-03-27 14:37:00,43.7,26.8,30.36,SW,232,8.0,9.0,51,0.00,,---,0.00,VWS V14.01,2013-03-27 19:37:00,
2013-03-27 14:42:00,44.2,27.2,30.37,SSE,149,4.0,10.0,51,0.00,,---,0.00,VWS V14.01,2013-03-27 19:42:00,
2013-03-27 14:48:00,43.4,26.0,30.36,ENE,76,2.0,10.0,50,0.00,,---,0.00,VWS V14.01,2013-03-27 19:48:00,
2013-03-27 14:53:00,43.3,26.4,30.36,ESE,120,2.0,10.0,51,0.00,,---,0.00,VWS V14.01,2013-03-27 19:53:00,
2013-03-27 14:58:00,43.0,27.0,30.36,SW,232,2.0,10.0,53,0.00,,---,0.00,VWS V14.01,2013-03-27 19:58:00,
2013-03-27 15:00:00,43.1,27.1,30.36,ESE,110,3.0,10.0,53,0.00,,---,0.00,VWS V14.01,2013-03-27 20:00:00,
2013-03-27 15:03:00,43.8,28.2,30.36,SSW,194,2.0,4.0,54,0.00,,---,0.00,VWS V14.01,2013-03-27 20:03:00,
2013-03-27 15:08:00,44.4,26.9,30.36,SSW,198,3.0,7.0,50,0.00,,---,0.00,VWS V14.01,2013-03-27 20:08:00,
2013-03-27 15:13:00,44.5,28.0,30.36,SSW,212,2.0,8.0,52,0.00,,---,0.00,VWS V14.01,2013-03-27 20:13:00,
2013-03-27 15:18:00,44.8,27.8,30.35,SSW,203,5.0,8.0,51,0.00,,---,0.00,VWS V14.01,2013-03-27 20:18:00,
2013-03-27 15:23:00,44.7,27.7,30.35,SE,132,2.0,11.0,51,0.00,,---,0.00,VWS V14.01,2013-03-27 20:23:00,
2013-03-27 15:28:00,44.8,27.8,30.34,SSE,165,3.0,11.0,51,0.00,,---,0.00,VWS V14.01,2013-03-27 20:28:00,
2013-03-27 15:30:00,44.9,27.9,30.34,SSW,201,3.0,11.0,51,0.00,,---,0.00,VWS V14.01,2013-03-27 20:30:00,
2013-03-27 15:34:00,44.7,27.2,30.34,ENE,69,5.0,8.0,50,0.00,,---,0.00,VWS V14.01,2013-03-27 20:34:00,
2013-03-27 15:39:00,44.5,28.0,30.34,SW,236,4.0,10.0,52,0.00,,---,0.00,VWS V14.01,2013-03-27 20:39:00,
2013-03-27 15:44:00,45.1,28.1,30.34,SW,215,1.0,10.0,51,0.00,,---,0.00,VWS V14.01,2013-03-27 20:44:00,
2013-03-27 15:49:00,45.2,25.7,30.34,SE,132,2.0,10.0,46,0.00,,---,0.00,VWS V14.01,2013-03-27 20:49:00,
2013-03-27 15:54:00,44.7,26.7,30.34,South,175,3.0,10.0,49,0.00,,---,0.00,VWS V14.01,2013-03-27 20:54:00,
2013-03-27 15:59:00,45.1,26.6,30.34,East,79,2.0,10.0,48,0.00,,---,0.00,VWS V14.01,2013-03-27 20:59:00,
2013-03-27 16:00:00,45.1,26.6,30.34,East,79,2.0,10.0,48,0.00,,---,0.00,VWS V14.01,2013-03-27 21:00:00,
2013-03-27 16:04:00,45.0,26.5,30.34,East,89,5.0,9.0,48,0.00,,---,0.00,VWS V14.01,2013-03-27 21:04:00,
2013-03-27 16:09:00,45.1,27.6,30.33,East,79,3.0,9.0,50,0.00,,---,0.00,VWS V14.01,2013-03-27 21:09:00,
2013-03-27 16:14:00,45.1,27.6,30.34,ENE,75,4.0,11.0,50,0.00,,---,0.00,VWS V14.01,2013-03-27 21:14:00,
2013-03-27 16:19:00,44.8,27.8,30.33,ENE,62,5.0,11.0,51,0.00,,---,0.00,VWS V14.01,2013-03-27 21:19:00,
2013-03-27 16:24:00,44.9,27.4,30.33,East,86,6.0,13.0,50,0.00,,---,0.00,VWS V14.01,2013-03-27 21:24:00,
2013-03-27 16:29:00,44.8,27.3,30.33,ENE,65,5.0,6.0,50,0.00,,---,0.00,VWS V14.01,2013-03-27 21:29:00,
2013-03-27 16:30:00,44.9,27.4,30.33,ENE,58,5.0,13.0,50,0.00,,---,0.00,VWS V14.01,2013-03-27 21:30:00,
2013-03-27 16:34:00,44.7,26.7,30.33,ESE,108,7.0,11.0,49,0.00,,---,0.00,VWS V14.01,2013-03-27 21:34:00,
2013-03-27 16:40:00,45.0,27.5,30.33,ESE,103,5.0,11.0,50,0.00,,---,0.00,VWS V14.01,2013-03-27 21:40:00,
2013-03-27 16:45:00,44.9,26.9,30.33,SE,125,2.0,11.0,49,0.00,,---,0.00,VWS V14.01,2013-03-27 21:45:00,
2013-03-27 16:50:00,45.0,28.0,30.33,East,93,6.0,11.0,51,0.00,,---,0.00,VWS V14.01,2013-03-27 21:50:00,
2013-03-27 16:55:00,45.1,27.6,30.33,NE,56,6.0,11.0,50,0.00,,---,0.00,VWS V14.01,2013-03-27 21:55:00,
2013-03-27 17:00:00,44.9,27.4,30.33,SE,143,4.0,9.0,50,0.00,,---,0.00,VWS V14.01,2013-03-27 22:00:00,
2013-03-27 17:05:00,44.8,27.3,30.33,ESE,117,4.0,9.0,50,0.00,,---,0.00,VWS V14.01,2013-03-27 22:05:00,
2013-03-27 17:10:00,45.3,28.2,30.33,ESE,103,7.0,9.0,51,0.00,,---,0.00,VWS V14.01,2013-03-27 22:10:00,
2013-03-27 17:15:00,45.4,27.9,30.33,East,98,3.0,9.0,50,0.00,,---,0.00,VWS V14.01,2013-03-27 22:15:00,
2013-03-27 17:20:00,45.1,27.1,30.33,East,90,4.0,9.0,49,0.00,,---,0.00,VWS V14.01,2013-03-27 22:20:00,
2013-03-27 17:25:00,45.0,27.0,30.33,ENE,64,7.0,9.0,49,0.00,,---,0.00,VWS V14.01,2013-03-27 22:25:00,
2013-03-27 17:30:00,44.8,26.3,30.33,East,82,3.0,5.0,48,0.00,,---,0.00,VWS V14.01,2013-03-27 22:30:00,
2013-03-27 17:35:00,44.7,26.7,30.33,NE,47,5.0,8.0,49,0.00,,---,0.00,VWS V14.01,2013-03-27 22:35:00,
2013-03-27 17:41:00,44.7,26.7,30.33,NE,46,6.0,8.0,49,0.00,,---,0.00,VWS V14.01,2013-03-27 22:41:00,
2013-03-27 17:46:00,44.6,26.6,30.33,East,101,2.0,9.0,49,0.00,,---,0.00,VWS V14.01,2013-03-27 22:46:00,
2013-03-27 17:51:00,44.5,27.0,30.34,East,85,3.0,9.0,50,0.00,,---,0.00,VWS V14.01,2013-03-27 22:51:00,
2013-03-27 17:56:00,44.7,25.7,30.34,East,84,2.0,9.0,47,0.00,,---,0.00,VWS V14.01,2013-03-27 22:56:00,
2013-03-27 18:00:00,44.6,25.6,30.34,ENE,76,2.0,9.0,47,0.00,,---,0.00,VWS V14.01,2013-03-27 23:00:00,
2013-03-27 18:01:00,44.6,25.6,30.34,East,86,2.0,6.0,47,0.00,,---,0.00,VWS V14.01,2013-03-27 23:01:00,
2013-03-27 18:06:00,44.5,26.0,30.34,ENE,61,6.0,8.0,48,0.00,,---,0.00,VWS V14.01,2013-03-27 23:06:00,
2013-03-27 18:11:00,44.5,26.0,30.34,ESE,110,2.0,8.0,48,0.00,,---,0.00,VWS V14.01,2013-03-27 23:11:00,
2013-03-27 18:17:00,44.5,26.0,30.34,SE,129,2.0,8.0,48,0.00,,---,0.00,VWS V14.01,2013-03-27 23:17:00,
2013-03-27 18:22:00,44.4,26.0,30.34,ENE,77,6.0,8.0,48,0.00,,---,0.00,VWS V14.01,2013-03-27 23:22:00,
2013-03-27 18:27:00,44.2,26.3,30.34,NNE,28,1.0,8.0,49,0.00,,---,0.00,VWS V14.01,2013-03-27 23:27:00,
2013-03-27 18:30:00,44.3,25.9,30.34,ENE,64,3.0,8.0,48,0.00,,---,0.00,VWS V14.01,2013-03-27 23:30:00,
2013-03-27 18:32:00,44.2,25.8,30.34,ENE,65,4.0,5.0,48,0.00,,---,0.00,VWS V14.01,2013-03-27 23:32:00,
2013-03-27 18:37:00,44.1,25.7,30.34,ESE,116,2.0,6.0,48,0.00,,---,0.00,VWS V14.01,2013-03-27 23:37:00,
2013-03-27 18:43:00,43.9,25.5,30.34,East,83,2.0,6.0,48,0.00,,---,0.00,VWS V14.01,2013-03-27 23:43:00,
2013-03-27 18:48:00,43.6,24.7,30.34,ENE,60,2.0,7.0,47,0.00,,---,0.00,VWS V14.01,2013-03-27 23:48:00,
2013-03-27 18:53:00,43.3,24.4,30.34,East,88,2.0,7.0,47,0.00,,---,0.00,VWS V14.01,2013-03-27 23:53:00,
2013-03-27 18:58:00,43.1,24.3,30.34,East,100,1.0,7.0,47,0.00,,---,0.00,VWS V14.01,2013-03-27 23:58:00,
2013-03-27 19:00:00,43.1,24.3,30.34,East,86,4.0,7.0,47,0.00,,---,0.00,VWS V14.01,2013-03-28 00:00:00,
2013-03-27 19:03:00,43.0,24.2,30.34,ESE,103,1.0,5.0,47,0.00,,---,0.00,VWS V14.01,2013-03-28 00:03:00,
2013-03-27 19:08:00,42.9,24.6,30.34,ENE,64,5.0,5.0,48,0.00,,---,0.00,VWS V14.01,2013-03-28 00:08:00,
2013-03-27 19:13:00,42.7,24.9,30.34,East,95,1.0,5.0,49,0.00,,---,0.00,VWS V14.01,2013-03-28 00:13:00,
2013-03-27 19:18:00,42.5,25.7,30.34,East,92,2.0,5.0,51,0.00,,---,0.00,VWS V14.01,2013-03-28 00:18:00,
2013-03-27 19:23:00,42.3,25.5,30.34,ESE,105,1.0,5.0,51,0.00,,---,0.00,VWS V14.01,2013-03-28 00:23:00,
2013-03-27 19:28:00,42.2,25.9,30.34,East,98,2.0,5.0,52,0.00,,---,0.00,VWS V14.01,2013-03-28 00:28:00,
2013-03-27 19:30:00,42.2,25.9,30.34,SE,128,1.0,5.0,52,0.00,,---,0.00,VWS V14.01,2013-03-28 00:30:00,
2013-03-27 19:33:00,42.0,26.1,30.34,East,87,1.0,2.0,53,0.00,,---,0.00,VWS V14.01,2013-03-28 00:33:00,
2013-03-27 19:38:00,41.9,26.5,30.34,ESE,103,1.0,2.0,54,0.00,,---,0.00,VWS V14.01,2013-03-28 00:38:00,
2013-03-27 19:43:00,41.7,26.3,30.34,East,86,1.0,2.0,54,0.00,,---,0.00,VWS V14.01,2013-03-28 00:43:00,
2013-03-27 19:48:00,41.6,26.6,30.34,East,96,1.0,3.0,55,0.00,,---,0.00,VWS V14.01,2013-03-28 00:48:00,
2013-03-27 19:53:00,41.4,26.9,30.34,East,91,1.0,3.0,56,0.00,,---,0.00,VWS V14.01,2013-03-28 00:53:00,
2013-03-27 19:59:00,41.2,26.7,30.34,East,91,1.0,3.0,56,0.00,,---,0.00,VWS V14.01,2013-03-28 00:59:00,
2013-03-27 20:00:00,41.2,27.1,30.34,East,90,1.0,3.0,57,0.00,,---,0.00,VWS V14.01,2013-03-28 01:00:00,
2013-03-27 20:04:00,41.1,27.0,30.34,East,79,1.0,2.0,57,0.00,,---,0.00,VWS V14.01,2013-03-28 01:04:00,
2013-03-27 20:09:00,40.9,27.3,30.35,ENE,68,0.0,2.0,58,0.00,,---,0.00,VWS V14.01,2013-03-28 01:09:00,
2013-03-27 20:14:00,40.7,27.1,30.35,East,81,0.0,2.0,58,0.00,,---,0.00,VWS V14.01,2013-03-28 01:14:00,
2013-03-27 20:19:00,40.5,27.3,30.35,East,94,0.0,2.0,59,0.00,,---,0.00,VWS V14.01,2013-03-28 01:19:00,
2013-03-27 20:24:00,40.4,27.2,30.35,ESE,109,0.0,2.0,59,0.00,,---,0.00,VWS V14.01,2013-03-28 01:24:00,
2013-03-27 20:29:00,40.3,27.1,30.35,ENE,78,2.0,3.0,59,0.00,,---,0.00,VWS V14.01,2013-03-28 01:29:00,
2013-03-27 20:30:00,40.3,27.1,30.35,ENE,78,1.0,3.0,59,0.00,,---,0.00,VWS V14.01,2013-03-28 01:30:00,
2013-03-27 20:34:00,40.2,27.4,30.35,East,82,0.0,2.0,60,0.00,,---,0.00,VWS V14.01,2013-03-28 01:34:00,
2013-03-27 20:39:00,39.9,27.6,30.35,East,82,0.0,2.0,61,0.00,,---,0.00,VWS V14.01,2013-03-28 01:39:00,
2013-03-27 20:44:00,39.4,27.5,30.36,East,82,0.0,2.0,62,0.00,,---,0.00,VWS V14.01,2013-03-28 01:44:00,
2013-03-27 20:49:00,39.2,27.3,30.36,East,79,1.0,2.0,62,0.00,,---,0.00,VWS V14.01,2013-03-28 01:49:00,
2013-03-27 20:54:00,38.9,27.4,30.36,East,79,0.0,2.0,63,0.00,,---,0.00,VWS V14.01,2013-03-28 01:54:00,
2013-03-27 20:59:00,38.7,27.2,30.36,NE,44,1.0,1.0,63,0.00,,---,0.00,VWS V14.01,2013-03-28 01:59:00,
2013-03-27 21:00:00,38.7,27.2,30.36,NE,44,1.0,2.0,63,0.00,,---,0.00,VWS V14.01,2013-03-28 02:00:00,
2013-03-27 21:04:00,38.5,27.4,30.36,East,82,0.0,2.0,64,0.00,,---,0.00,VWS V14.01,2013-03-28 02:04:00,
2013-03-27 21:10:00,38.2,27.1,30.36,East,82,0.0,2.0,64,0.00,,---,0.00,VWS V14.01,2013-03-28 02:10:00,
2013-03-27 21:15:00,38.0,27.3,30.37,East,82,1.0,2.0,65,0.00,,---,0.00,VWS V14.01,2013-03-28 02:15:00,
2013-03-27 21:20:00,37.8,27.5,30.36,East,82,0.0,2.0,66,0.00,,---,0.00,VWS V14.01,2013-03-28 02:20:00,
2013-03-27 21:25:00,37.7,27.8,30.36,ENE,63,1.0,2.0,67,0.00,,---,0.00,VWS V14.01,2013-03-28 02:25:00,
2013-03-27 21:30:00,37.6,27.6,30.37,ENE,63,0.0,0.0,67,0.00,,---,0.00,VWS V14.01,2013-03-28 02:30:00,
2013-03-27 21:35:00,37.4,27.8,30.37,NE,39,2.0,3.0,68,0.00,,---,0.00,VWS V14.01,2013-03-28 02:35:00,
2013-03-27 21:40:00,37.2,27.6,30.37,ENE,72,1.0,3.0,68,0.00,,---,0.00,VWS V14.01,2013-03-28 02:40:00,
2013-03-27 21:45:00,37.0,27.8,30.37,ENE,65,0.0,3.0,69,0.00,,---,0.00,VWS V14.01,2013-03-28 02:45:00,
2013-03-27 21:50:00,36.7,27.9,30.37,ENE,64,1.0,3.0,70,0.00,,---,0.00,VWS V14.01,2013-03-28 02:50:00,
2013-03-27 21:55:00,36.3,27.8,30.37,ENE,58,0.0,3.0,71,0.00,,---,0.00,VWS V14.01,2013-03-28 02:55:00,
2013-03-27 22:00:00,36.1,28.0,30.38,NE,56,1.0,1.0,72,0.00,,---,0.00,VWS V14.01,2013-03-28 03:00:00,
2013-03-27 22:05:00,35.9,27.8,30.37,ENE,58,0.0,2.0,72,0.00,,---,0.00,VWS V14.01,2013-03-28 03:05:00,
2013-03-27 22:10:00,35.6,27.8,30.38,NE,50,0.0,2.0,73,0.00,,---,0.00,VWS V14.01,2013-03-28 03:10:00,
2013-03-27 22:15:00,35.3,27.5,30.38,NE,50,1.0,2.0,73,0.00,,---,0.00,VWS V14.01,2013-03-28 03:15:00,
2013-03-27 22:20:00,35.1,27.7,30.38,NE,53,1.0,2.0,74,0.00,,---,0.00,VWS V14.01,2013-03-28 03:20:00,
2013-03-27 22:25:00,35.0,27.9,30.38,NE,36,2.0,4.0,75,0.00,,---,0.00,VWS V14.01,2013-03-28 03:25:00,
2013-03-27 22:30:00,35.1,28.0,30.38,NE,56,2.0,4.0,75,0.00,,---,0.00,VWS V14.01,2013-03-28 03:30:00,
2013-03-27 22:31:00,35.1,28.0,30.38,NE,56,0.0,2.0,75,0.00,,---,0.00,VWS V14.01,2013-03-28 03:31:00,
2013-03-27 22:36:00,34.9,27.8,30.38,ENE,74,0.0,2.0,75,0.00,,---,0.00,VWS V14.01,2013-03-28 03:36:00,
2013-03-27 22:41:00,34.8,27.7,30.38,NE,46,1.0,2.0,75,0.00,,---,0.00,VWS V14.01,2013-03-28 03:41:00,
2013-03-27 22:46:00,34.6,27.5,30.38,NE,34,0.0,2.0,75,0.00,,---,0.00,VWS V14.01,2013-03-28 03:46:00,
2013-03-27 22:51:00,34.5,27.7,30.38,ENE,74,0.0,2.0,76,0.00,,---,0.00,VWS V14.01,2013-03-28 03:51:00,
2013-03-27 22:56:00,34.3,27.5,30.38,NE,53,1.0,2.0,76,0.00,,---,0.00,VWS V14.01,2013-03-28 03:56:00,
2013-03-27 23:00:00,34.3,27.5,30.38,NE,46,1.0,1.0,76,0.00,,---,0.00,VWS V14.01,2013-03-28 04:00:00,
2013-03-27 23:01:00,34.2,27.4,30.38,NE,46,2.0,2.0,76,0.00,,---,0.00,VWS V14.01,2013-03-28 04:01:00,
2013-03-27 23:06:00,34.1,27.7,30.38,NE,46,1.0,2.0,77,0.00,,---,0.00,VWS V14.01,2013-03-28 04:06:00,
2013-03-27 23:12:00,33.9,27.5,30.38,NE,41,2.0,2.0,77,0.00,,---,0.00,VWS V14.01,2013-03-28 04:12:00,
2013-03-27 23:17:00,33.9,27.5,30.38,NE,50,1.0,2.0,77,0.00,,---,0.00,VWS V14.01,2013-03-28 04:17:00,
2013-03-27 23:22:00,33.8,27.4,30.37,NE,46,1.0,2.0,77,0.00,,---,0.00,VWS V14.01,2013-03-28 04:22:00,
2013-03-27 23:27:00,33.7,27.6,30.37,ENE,72,0.0,3.0,78,0.00,,---,0.00,VWS V14.01,2013-03-28 04:27:00,
2013-03-27 23:30:00,33.7,27.6,30.37,East,81,0.0,3.0,78,0.00,,---,0.00,VWS V14.01,2013-03-28 04:30:00,
2013-03-27 23:32:00,33.6,27.5,30.37,ENE,58,2.0,3.0,78,0.00,,---,0.00,VWS V14.01,2013-03-28 04:32:00,
2013-03-27 23:37:00,33.5,27.4,30.37,NE,53,2.0,3.0,78,0.00,,---,0.00,VWS V14.01,2013-03-28 04:37:00,
2013-03-27 23:42:00,33.5,27.4,30.38,NE,49,1.0,3.0,78,0.00,,---,0.00,VWS V14.01,2013-03-28 04:42:00,
2013-03-27 23:47:00,33.5,27.4,30.37,ENE,68,1.0,3.0,78,0.00,,---,0.00,VWS V14.01,2013-03-28 04:47:00,
2013-03-27 23:52:00,33.4,27.3,30.37,East,79,1.0,3.0,78,0.00,,---,0.00,VWS V14.01,2013-03-28 04:52:00,
2013-03-27 23:57:00,33.3,27.2,30.37,ENE,60,1.0,4.0,78,0.00,,---,0.00,VWS V14.01,2013-03-28 04:57:00,